Weather History for Winchester, TN

Change the Weather History Date:

Saturday, October 27, 2012

  Actual Average (KTHA) Record (KTHA)
Temperature  
Mean Temperature 46 °F -  
Max Temperature 48 °F 67 °F 62 °F (2013)
Min Temperature 44 °F 44 °F 50 °F (2013)
Degree Days  
Heating Degree Days 19    
Moisture  
Dew Point 44 °F    
Average Humidity 92    
Maximum Humidity 100    
Minimum Humidity 82    
Precipitation  
Precipitation 0.00 in - - ()
Sea Level Pressure  
Sea Level Pressure 30.01 in    
Wind  
Wind Speed 8 mph ()    
Max Wind Speed 15 mph    
Max Gust Speed -    
Visibility 8.3 miles    
Events      
Averages and records for this station are not official NWS values.
T = Trace of Precipitation, MM = Missing Value Source: Averaged Metar Reports

Daily Weather History Graph

Daily Weather History Graph

Search for Another Location

Airport:

Trip Planner

Search our weather history database for the weather conditions in past years. The results will help you decide how hot, cold, wet, or windy it might be!

Date:

Astronomy

Oct. 27, 2012 Rise Set
Actual Time 8:01 AM EDT 6:54 PM EDT
Civil Twilight 7:35 AM EDT 7:20 PM EDT
Nautical Twilight 7:05 AM EDT 7:50 PM EDT
Astronomical Twilight 6:35 AM EDT 8:19 PM EDT
Moon 5:37 PM EDT (10/27) 5:59 AM EDT (10/27)
Length of Visible Light 11h 45m
Length of Day
10h 52m
Waxing Gibbous, 96% of the Moon is Illuminated
Oct 27
Waxing Gibbous
Oct 29
Full
Nov 6
Last Quarter
Nov 13
New
Nov 20
First Quarter

Hourly Weather History & Observations

Time (EDT) Temp. Windchill Dew Point Humidity Pressure Visibility Wind Dir Wind Speed Gust Speed Precip Events Conditions
12:15 AM 48.2 °F - 46.4 °F 93% 30.06 in 10.0 mi NNW 4.6 mph - N/A   Overcast
12:35 AM 48.2 °F - 46.4 °F 93% 30.06 in 7.0 mi NNW 6.9 mph - N/A   Overcast
12:55 AM 48.2 °F - 46.4 °F 93% 30.06 in 5.0 mi NNW 6.9 mph - N/A   Overcast
1:15 AM 46.4 °F 42.9 °F 46.4 °F 100% 30.05 in 5.0 mi NNW 6.9 mph - N/A   Overcast
1:35 AM 46.4 °F 42.9 °F 46.4 °F 100% 30.04 in 5.0 mi NNW 6.9 mph - N/A   Overcast
1:55 AM 46.4 °F 43.5 °F 46.4 °F 100% 30.04 in 5.0 mi North 5.8 mph - N/A   Overcast
2:15 AM 46.4 °F 42.4 °F 46.4 °F 100% 30.03 in 4.0 mi NNW 8.1 mph - N/A   Overcast
2:35 AM 46.4 °F 42.4 °F 46.4 °F 100% 30.03 in 3.0 mi NNW 8.1 mph - N/A   Overcast
2:55 AM 46.4 °F 42.4 °F 46.4 °F 100% 30.03 in 4.0 mi NNW 8.1 mph - N/A   Overcast
3:15 AM 46.4 °F 44.3 °F 44.6 °F 93% 30.03 in 3.0 mi NNW 4.6 mph - N/A   Overcast
3:35 AM 46.4 °F 43.5 °F 44.6 °F 93% 30.02 in 3.0 mi NNW 5.8 mph - N/A   Overcast
3:55 AM 46.4 °F 42.9 °F 44.6 °F 93% 30.02 in 3.0 mi NNW 6.9 mph - N/A   Overcast
4:35 AM 44.6 °F 41.4 °F 44.6 °F 100% 30.02 in 6.0 mi NNW 5.8 mph - N/A   Overcast
4:55 AM 46.4 °F 42.9 °F 44.6 °F 93% 30.02 in 7.0 mi North 6.9 mph - N/A   Overcast
5:15 AM 46.4 °F 43.5 °F 44.6 °F 93% 30.02 in 8.0 mi North 5.8 mph - N/A   Overcast
5:35 AM 44.6 °F 40.2 °F 44.6 °F 100% 30.02 in 6.0 mi NNW 8.1 mph - N/A   Overcast
5:55 AM 44.6 °F 41.4 °F 44.6 °F 100% 30.02 in 5.0 mi NNW 5.8 mph - N/A   Overcast
6:15 AM 44.6 °F 39.2 °F 44.6 °F 100% 30.02 in 6.0 mi North 10.4 mph - N/A   Overcast
6:35 AM 44.6 °F 40.7 °F 44.6 °F 100% 30.02 in 9.0 mi North 6.9 mph - N/A   Overcast
6:55 AM 44.6 °F 39.2 °F 44.6 °F 100% 30.02 in 7.0 mi North 10.4 mph - N/A   Overcast
7:15 AM 44.6 °F 40.7 °F 44.6 °F 100% 30.02 in 10.0 mi NNW 6.9 mph - N/A   Overcast
7:55 AM 44.6 °F 39.2 °F 42.8 °F 93% 30.03 in 10.0 mi North 10.4 mph - N/A   Overcast
8:15 AM 44.6 °F 38.8 °F 42.8 °F 93% 30.03 in 10.0 mi North 11.5 mph - N/A   Overcast
8:35 AM 44.6 °F 40.2 °F 42.8 °F 93% 30.04 in 10.0 mi NNW 8.1 mph - N/A   Overcast
8:55 AM 44.6 °F 39.7 °F 42.8 °F 93% 30.05 in 10.0 mi North 9.2 mph - N/A   Overcast
9:15 AM 44.6 °F 39.2 °F 42.8 °F 93% 30.05 in 10.0 mi North 10.4 mph - N/A   Overcast
9:35 AM 44.6 °F 39.7 °F 42.8 °F 93% 30.06 in 10.0 mi North 9.2 mph - N/A   Overcast
10:15 AM 44.6 °F 40.2 °F 44.6 °F 100% 30.06 in 4.0 mi North 8.1 mph - N/A   Overcast
10:35 AM 44.6 °F 39.2 °F 44.6 °F 100% 30.05 in 5.0 mi North 10.4 mph - N/A   Overcast
10:55 AM 46.4 °F 42.4 °F 44.6 °F 93% 30.05 in 4.0 mi North 8.1 mph - N/A   Overcast
11:35 AM 46.4 °F 40.7 °F 44.6 °F 93% 30.05 in 10.0 mi NNE 12.7 mph - N/A   Overcast
11:55 AM 46.4 °F 41.5 °F 44.6 °F 93% 30.04 in 10.0 mi North 10.4 mph - N/A   Overcast
12:15 PM 46.4 °F 40.1 °F 44.6 °F 93% 30.04 in 10.0 mi North 15.0 mph - N/A   Overcast
12:35 PM 48.2 °F - 44.6 °F 87% 30.03 in 10.0 mi NNE 11.5 mph - N/A   Overcast
12:55 PM 48.2 °F - 44.6 °F 87% 30.02 in 10.0 mi NNE 12.7 mph - N/A   Overcast
1:15 PM 48.2 °F - 44.6 °F 87% 30.01 in 10.0 mi North 12.7 mph - N/A   Overcast
1:35 PM 48.2 °F - 44.6 °F 87% 30.00 in 10.0 mi NNE 10.4 mph - N/A   Overcast
1:55 PM 48.2 °F - 44.6 °F 87% 29.99 in 10.0 mi North 9.2 mph - N/A   Overcast
2:15 PM 48.2 °F - 44.6 °F 87% 29.99 in 10.0 mi North 9.2 mph - N/A   Overcast
2:35 PM 48.2 °F - 44.6 °F 87% 29.99 in 10.0 mi NNW 8.1 mph - N/A   Overcast
2:55 PM 48.2 °F - 44.6 °F 87% 29.98 in 10.0 mi North 12.7 mph - N/A   Overcast
3:15 PM 48.2 °F - 44.6 °F 87% 29.98 in 10.0 mi North 10.4 mph - N/A   Overcast
3:35 PM 48.2 °F - 44.6 °F 87% 29.98 in 10.0 mi North 10.4 mph - N/A   Overcast
3:55 PM 46.4 °F 41.1 °F 44.6 °F 93% 29.98 in 10.0 mi North 11.5 mph - N/A   Overcast
4:15 PM 46.4 °F 41.9 °F 44.6 °F 93% 29.98 in 10.0 mi North 9.2 mph - N/A   Overcast
4:35 PM 46.4 °F 40.7 °F 44.6 °F 93% 29.98 in 10.0 mi North 12.7 mph - N/A   Overcast
4:55 PM 46.4 °F 40.4 °F 44.6 °F 93% 29.98 in 8.0 mi North 13.8 mph - N/A   Overcast
5:15 PM 46.4 °F 40.4 °F 42.8 °F 87% 29.99 in 7.0 mi North 13.8 mph - N/A   Overcast
5:35 PM 46.4 °F 41.5 °F 42.8 °F 87% 29.99 in 9.0 mi North 10.4 mph - N/A   Overcast
5:55 PM 46.4 °F 42.4 °F 42.8 °F 87% 29.99 in 10.0 mi North 8.1 mph - N/A   Overcast
6:15 PM 46.4 °F 40.7 °F 42.8 °F 87% 29.99 in 10.0 mi North 12.7 mph - N/A   Overcast
6:35 PM 46.4 °F 40.7 °F 42.8 °F 87% 29.99 in 10.0 mi North 12.7 mph - N/A   Overcast
6:55 PM 46.4 °F 42.4 °F 42.8 °F 87% 29.99 in 10.0 mi NNE 8.1 mph - N/A   Overcast
7:15 PM 46.4 °F 42.4 °F 42.8 °F 87% 29.99 in 10.0 mi NNE 8.1 mph - N/A   Overcast
7:35 PM 46.4 °F 42.4 °F 42.8 °F 87% 30.00 in 10.0 mi North 8.1 mph - N/A   Overcast
7:55 PM 46.4 °F 42.4 °F 42.8 °F 87% 29.99 in 10.0 mi North 8.1 mph - N/A   Overcast
8:15 PM 46.4 °F 41.1 °F 42.8 °F 87% 29.99 in 10.0 mi North 11.5 mph - N/A   Overcast
8:35 PM 46.4 °F 41.5 °F 42.8 °F 87% 29.99 in 10.0 mi North 10.4 mph - N/A   Overcast
8:55 PM 46.4 °F 40.4 °F 42.8 °F 87% 29.99 in 10.0 mi North 13.8 mph - N/A   Overcast
9:15 PM 46.4 °F 40.4 °F 42.8 °F 87% 30.00 in 10.0 mi North 13.8 mph - N/A   Overcast
9:35 PM 48.2 °F - 42.8 °F 82% 30.00 in 10.0 mi North 13.8 mph - N/A   Overcast
9:55 PM 48.2 °F - 42.8 °F 82% 30.00 in 10.0 mi NNE 13.8 mph - N/A   Overcast
10:15 PM 48.2 °F - 42.8 °F 82% 30.00 in 10.0 mi North 12.7 mph - N/A   Overcast
10:55 PM 48.2 °F - 42.8 °F 82% 29.99 in 10.0 mi NNE 13.8 mph - N/A   Overcast
11:35 PM 48.2 °F - 42.8 °F 82% 29.98 in 10.0 mi NNE 10.4 mph - N/A   Overcast
11:55 PM 48.2 °F - 42.8 °F 82% 29.97 in 10.0 mi NNE 10.4 mph - N/A   Overcast